Corryville, Ohio
Current Conditions -  °F | °C
As of 3:53 PM on Saturday 20 Dec 2014 (Local Time) from KLUK Reporting Station
Overcast Overcast  
Wind Chill: 33°   Ceiling: 2100
Heat Index: 33°   Visibility: 7mi
Dew Point: 25°   Wind: 3mph
Humidity: 72%   Direction: 50°NE
Pressure: 30.28"   Gusts: NA
Location:  39.1276°N, 84.5123°W
Report Text: KLUK 202053Z 05003KT 7SM OVC021 01/M04 A3028 RMK AO2 SLP257 T00061039 55006
Loading
Personal Weather Stations






























Interactive Weather Map New forecast layout! Learn more

10-Day Weather Forecast

Advertisements
Track Severe Weather on mobile